sensor_id;sensor_type;location;lat;lon;timestamp;temperature;humidity
68701;DHT22;55682;51.114;5.882;2023-03-23T00:01:28;14.24;72.28
68701;DHT22;55682;51.114;5.882;2023-03-23T00:03:58;14.29;72.24
68701;DHT22;55682;51.114;5.882;2023-03-23T00:06:26;14.30;72.22
68701;DHT22;55682;51.114;5.882;2023-03-23T00:08:53;14.36;71.96
68701;DHT22;55682;51.114;5.882;2023-03-23T00:11:27;14.38;71.76
68701;DHT22;55682;51.114;5.882;2023-03-23T00:13:57;14.15;72.73
68701;DHT22;55682;51.114;5.882;2023-03-23T00:16:31;14.27;72.34
68701;DHT22;55682;51.114;5.882;2023-03-23T00:19:06;14.42;71.80
68701;DHT22;55682;51.114;5.882;2023-03-23T00:21:35;14.27;72.28
68701;DHT22;55682;51.114;5.882;2023-03-23T00:24:02;14.28;72.29
68701;DHT22;55682;51.114;5.882;2023-03-23T00:26:29;14.25;72.49
68701;DHT22;55682;51.114;5.882;2023-03-23T00:29:00;14.37;72.22
68701;DHT22;55682;51.114;5.882;2023-03-23T00:31:26;14.29;72.50
68701;DHT22;55682;51.114;5.882;2023-03-23T00:33:58;14.38;71.97
68701;DHT22;55682;51.114;5.882;2023-03-23T00:36:26;14.32;72.47
68701;DHT22;55682;51.114;5.882;2023-03-23T00:38:52;14.26;72.80
68701;DHT22;55682;51.114;5.882;2023-03-23T00:41:19;14.21;72.94
68701;DHT22;55682;51.114;5.882;2023-03-23T00:43:44;14.25;72.80
68701;DHT22;55682;51.114;5.882;2023-03-23T00:46:10;14.23;73.04
68701;DHT22;55682;51.114;5.882;2023-03-23T00:48:37;14.29;72.59
68701;DHT22;55682;51.114;5.882;2023-03-23T00:51:10;14.38;72.47
68701;DHT22;55682;51.114;5.882;2023-03-23T00:53:40;14.32;72.76
68701;DHT22;55682;51.114;5.882;2023-03-23T00:56:07;14.34;72.79
68701;DHT22;55682;51.114;5.882;2023-03-23T00:58:33;14.44;72.34
68701;DHT22;55682;51.114;5.882;2023-03-23T01:00:59;14.50;72.30
68701;DHT22;55682;51.114;5.882;2023-03-23T01:03:24;14.48;72.06
68701;DHT22;55682;51.114;5.882;2023-03-23T01:05:52;14.24;73.18
68701;DHT22;55682;51.114;5.882;2023-03-23T01:08:19;14.15;73.63
68701;DHT22;55682;51.114;5.882;2023-03-23T01:10:45;14.11;73.90
68701;DHT22;55682;51.114;5.882;2023-03-23T01:13:12;14.22;73.64
68701;DHT22;55682;51.114;5.882;2023-03-23T01:15:38;14.03;74.48
68701;DHT22;55682;51.114;5.882;2023-03-23T01:18:04;14.21;73.62
68701;DHT22;55682;51.114;5.882;2023-03-23T01:20:31;14.15;74.02
68701;DHT22;55682;51.114;5.882;2023-03-23T01:22:58;14.11;74.22
68701;DHT22;55682;51.114;5.882;2023-03-23T01:25:35;14.11;74.15
68701;DHT22;55682;51.114;5.882;2023-03-23T01:28:02;14.26;73.65
68701;DHT22;55682;51.114;5.882;2023-03-23T01:30:27;14.21;73.99
68701;DHT22;55682;51.114;5.882;2023-03-23T01:32:55;14.20;74.02
68701;DHT22;55682;51.114;5.882;2023-03-23T01:35:21;14.08;74.77
68701;DHT22;55682;51.114;5.882;2023-03-23T01:37:48;14.15;74.36
68701;DHT22;55682;51.114;5.882;2023-03-23T01:40:15;14.23;74.22
68701;DHT22;55682;51.114;5.882;2023-03-23T01:42:42;14.00;75.27
68701;DHT22;55682;51.114;5.882;2023-03-23T01:47:50;13.80;76.38
68701;DHT22;55682;51.114;5.882;2023-03-23T01:50:21;14.17;74.76
68701;DHT22;55682;51.114;5.882;2023-03-23T01:52:52;14.07;75.19
68701;DHT22;55682;51.114;5.882;2023-03-23T01:55:20;14.19;74.79
68701;DHT22;55682;51.114;5.882;2023-03-23T01:57:49;14.20;74.64
68701;DHT22;55682;51.114;5.882;2023-03-23T02:00:16;14.00;75.44
68701;DHT22;55682;51.114;5.882;2023-03-23T02:02:51;14.12;74.88
68701;DHT22;55682;51.114;5.882;2023-03-23T02:05:37;13.96;75.51
68701;DHT22;55682;51.114;5.882;2023-03-23T02:08:11;13.95;75.69
68701;DHT22;55682;51.114;5.882;2023-03-23T02:10:39;14.13;75.01
68701;DHT22;55682;51.114;5.882;2023-03-23T02:13:09;14.09;75.14
68701;DHT22;55682;51.114;5.882;2023-03-23T02:26:19;13.96;75.63
68701;DHT22;55682;51.114;5.882;2023-03-23T02:28:59;13.95;75.85
68701;DHT22;55682;51.114;5.882;2023-03-23T02:34:46;14.00;75.69
68701;DHT22;55682;51.114;5.882;2023-03-23T02:40:21;14.04;75.71
68701;DHT22;55682;51.114;5.882;2023-03-23T02:42:53;13.84;76.46
68701;DHT22;55682;51.114;5.882;2023-03-23T02:45:21;13.99;75.73
68701;DHT22;55682;51.114;5.882;2023-03-23T02:47:52;13.81;76.64
68701;DHT22;55682;51.114;5.882;2023-03-23T02:50:22;13.74;77.02
68701;DHT22;55682;51.114;5.882;2023-03-23T02:52:50;13.94;76.42
68701;DHT22;55682;51.114;5.882;2023-03-23T02:55:19;13.99;75.91
68701;DHT22;55682;51.114;5.882;2023-03-23T02:57:46;13.81;76.86
68701;DHT22;55682;51.114;5.882;2023-03-23T03:00:16;13.86;76.36
68701;DHT22;55682;51.114;5.882;2023-03-23T03:03:01;13.98;75.71
68701;DHT22;55682;51.114;5.882;2023-03-23T03:05:38;13.94;76.01
68701;DHT22;55682;51.114;5.882;2023-03-23T03:11:03;13.78;76.69
68701;DHT22;55682;51.114;5.882;2023-03-23T03:19:16;14.06;75.53
68701;DHT22;55682;51.114;5.882;2023-03-23T03:21:47;14.03;75.44
68701;DHT22;55682;51.114;5.882;2023-03-23T03:24:22;13.91;76.00
68701;DHT22;55682;51.114;5.882;2023-03-23T03:26:53;13.90;75.95
68701;DHT22;55682;51.114;5.882;2023-03-23T03:29:37;14.07;75.02
68701;DHT22;55682;51.114;5.882;2023-03-23T03:32:11;14.08;75.03
68701;DHT22;55682;51.114;5.882;2023-03-23T03:34:38;13.94;75.67
68701;DHT22;55682;51.114;5.882;2023-03-23T03:37:05;14.04;75.36
68701;DHT22;55682;51.114;5.882;2023-03-23T03:39:36;14.01;75.40
68701;DHT22;55682;51.114;5.882;2023-03-23T03:42:04;13.89;76.09
68701;DHT22;55682;51.114;5.882;2023-03-23T03:44:31;13.95;75.89
68701;DHT22;55682;51.114;5.882;2023-03-23T03:46:56;13.84;76.31
68701;DHT22;55682;51.114;5.882;2023-03-23T03:49:22;14.03;75.57
68701;DHT22;55682;51.114;5.882;2023-03-23T03:51:48;14.09;75.35
68701;DHT22;55682;51.114;5.882;2023-03-23T03:54:20;13.92;75.92
68701;DHT22;55682;51.114;5.882;2023-03-23T03:56:45;13.91;75.85
68701;DHT22;55682;51.114;5.882;2023-03-23T03:59:30;13.92;75.64
68701;DHT22;55682;51.114;5.882;2023-03-23T04:02:16;13.88;75.89
68701;DHT22;55682;51.114;5.882;2023-03-23T04:04:46;13.91;75.89
68701;DHT22;55682;51.114;5.882;2023-03-23T04:07:12;14.01;75.40
68701;DHT22;55682;51.114;5.882;2023-03-23T04:09:43;13.95;75.50
68701;DHT22;55682;51.114;5.882;2023-03-23T04:12:12;13.96;75.56
68701;DHT22;55682;51.114;5.882;2023-03-23T04:14:57;14.00;75.15
68701;DHT22;55682;51.114;5.882;2023-03-23T04:17:30;13.92;75.46
68701;DHT22;55682;51.114;5.882;2023-03-23T04:19:57;14.00;75.17
68701;DHT22;55682;51.114;5.882;2023-03-23T04:22:24;14.03;74.92
68701;DHT22;55682;51.114;5.882;2023-03-23T04:24:57;14.01;74.74
68701;DHT22;55682;51.114;5.882;2023-03-23T04:27:25;14.07;74.44
68701;DHT22;55682;51.114;5.882;2023-03-23T04:29:55;14.08;74.12
68701;DHT22;55682;51.114;5.882;2023-03-23T04:32:41;13.93;74.64
68701;DHT22;55682;51.114;5.882;2023-03-23T04:35:13;13.94;74.71
68701;DHT22;55682;51.114;5.882;2023-03-23T04:37:57;13.97;74.31
68701;DHT22;55682;51.114;5.882;2023-03-23T04:40:24;13.85;74.70
68701;DHT22;55682;51.114;5.882;2023-03-23T04:43:02;14.03;74.01
68701;DHT22;55682;51.114;5.882;2023-03-23T04:45:55;14.04;73.68
68701;DHT22;55682;51.114;5.882;2023-03-23T04:48:26;13.94;73.93
68701;DHT22;55682;51.114;5.882;2023-03-23T04:51:02;13.96;73.99
68701;DHT22;55682;51.114;5.882;2023-03-23T04:53:30;14.07;73.38
68701;DHT22;55682;51.114;5.882;2023-03-23T04:55:56;14.11;72.81
68701;DHT22;55682;51.114;5.882;2023-03-23T04:58:23;14.00;73.35
68701;DHT22;55682;51.114;5.882;2023-03-23T05:01:13;14.05;72.76
68701;DHT22;55682;51.114;5.882;2023-03-23T05:04:04;13.91;73.33
68701;DHT22;55682;51.114;5.882;2023-03-23T05:06:31;13.96;73.03
68701;DHT22;55682;51.114;5.882;2023-03-23T05:09:02;14.01;72.63
68701;DHT22;55682;51.114;5.882;2023-03-23T05:11:29;14.01;72.51
68701;DHT22;55682;51.114;5.882;2023-03-23T05:13:54;13.89;72.90
68701;DHT22;55682;51.114;5.882;2023-03-23T05:16:21;14.03;72.22
68701;DHT22;55682;51.114;5.882;2023-03-23T05:18:47;13.98;72.14
68701;DHT22;55682;51.114;5.882;2023-03-23T05:21:15;13.97;72.13
68701;DHT22;55682;51.114;5.882;2023-03-23T05:23:46;13.94;71.84
68701;DHT22;55682;51.114;5.882;2023-03-23T05:26:20;13.93;72.32
68701;DHT22;55682;51.114;5.882;2023-03-23T05:28:47;13.94;72.09
68701;DHT22;55682;51.114;5.882;2023-03-23T05:31:23;13.96;71.81
68701;DHT22;55682;51.114;5.882;2023-03-23T05:33:50;14.04;71.23
68701;DHT22;55682;51.114;5.882;2023-03-23T05:36:30;14.05;71.08
68701;DHT22;55682;51.114;5.882;2023-03-23T05:39:12;13.89;71.36
68701;DHT22;55682;51.114;5.882;2023-03-23T05:41:56;14.07;70.67
68701;DHT22;55682;51.114;5.882;2023-03-23T05:44:25;14.25;69.65
68701;DHT22;55682;51.114;5.882;2023-03-23T05:46:55;14.13;69.89
68701;DHT22;55682;51.114;5.882;2023-03-23T05:49:21;14.13;69.72
68701;DHT22;55682;51.114;5.882;2023-03-23T05:51:47;14.24;69.36
68701;DHT22;55682;51.114;5.882;2023-03-23T05:54:15;14.34;68.65
68701;DHT22;55682;51.114;5.882;2023-03-23T05:56:43;14.11;69.63
68701;DHT22;55682;51.114;5.882;2023-03-23T05:59:09;14.18;69.36
68701;DHT22;55682;51.114;5.882;2023-03-23T06:01:37;14.22;69.36
68701;DHT22;55682;51.114;5.882;2023-03-23T06:04:04;14.20;69.14
68701;DHT22;55682;51.114;5.882;2023-03-23T06:07:04;14.33;68.61
68701;DHT22;55682;51.114;5.882;2023-03-23T06:09:30;14.21;69.06
68701;DHT22;55682;51.114;5.882;2023-03-23T06:12:15;14.40;68.54
68701;DHT22;55682;51.114;5.882;2023-03-23T06:14:48;14.32;68.86
68701;DHT22;55682;51.114;5.882;2023-03-23T06:17:16;14.34;68.75
68701;DHT22;55682;51.114;5.882;2023-03-23T06:19:43;14.26;68.92
68701;DHT22;55682;51.114;5.882;2023-03-23T06:22:15;14.29;69.07
68701;DHT22;55682;51.114;5.882;2023-03-23T06:24:44;14.22;69.23
68701;DHT22;55682;51.114;5.882;2023-03-23T06:27:12;14.35;68.97
68701;DHT22;55682;51.114;5.882;2023-03-23T06:29:41;14.30;69.17
68701;DHT22;55682;51.114;5.882;2023-03-23T06:32:11;14.27;68.99
68701;DHT22;55682;51.114;5.882;2023-03-23T06:34:40;14.43;68.65
68701;DHT22;55682;51.114;5.882;2023-03-23T06:37:31;14.56;68.32
68701;DHT22;55682;51.114;5.882;2023-03-23T06:40:07;14.49;68.71
68701;DHT22;55682;51.114;5.882;2023-03-23T06:42:38;14.55;68.41
68701;DHT22;55682;51.114;5.882;2023-03-23T06:45:22;14.36;69.03
68701;DHT22;55682;51.114;5.882;2023-03-23T06:47:53;14.29;69.42
68701;DHT22;55682;51.114;5.882;2023-03-23T06:50:19;14.29;69.77
68701;DHT22;55682;51.114;5.882;2023-03-23T06:52:50;14.27;69.72
68701;DHT22;55682;51.114;5.882;2023-03-23T06:55:17;14.29;69.79
68701;DHT22;55682;51.114;5.882;2023-03-23T06:57:44;14.50;69.02
68701;DHT22;55682;51.114;5.882;2023-03-23T07:00:12;14.51;69.07
68701;DHT22;55682;51.114;5.882;2023-03-23T07:02:40;14.48;68.63
68701;DHT22;55682;51.114;5.882;2023-03-23T07:05:08;14.57;68.24
68701;DHT22;55682;51.114;5.882;2023-03-23T07:07:38;14.64;68.07
68701;DHT22;55682;51.114;5.882;2023-03-23T07:10:18;14.49;68.36
68701;DHT22;55682;51.114;5.882;2023-03-23T07:12:44;14.40;68.90
68701;DHT22;55682;51.114;5.882;2023-03-23T07:15:10;14.55;68.53
68701;DHT22;55682;51.114;5.882;2023-03-23T07:17:39;14.49;68.61
68701;DHT22;55682;51.114;5.882;2023-03-23T07:20:14;14.39;68.85
68701;DHT22;55682;51.114;5.882;2023-03-23T07:22:40;14.37;68.94
68701;DHT22;55682;51.114;5.882;2023-03-23T07:25:17;14.42;68.69
68701;DHT22;55682;51.114;5.882;2023-03-23T07:27:50;14.55;68.05
68701;DHT22;55682;51.114;5.882;2023-03-23T07:30:16;14.59;67.84
68701;DHT22;55682;51.114;5.882;2023-03-23T07:32:42;14.62;67.98
68701;DHT22;55682;51.114;5.882;2023-03-23T07:35:09;14.65;67.45
68701;DHT22;55682;51.114;5.882;2023-03-23T07:37:52;14.82;66.82
68701;DHT22;55682;51.114;5.882;2023-03-23T07:40:19;14.67;67.55
68701;DHT22;55682;51.114;5.882;2023-03-23T07:42:57;14.81;66.97
68701;DHT22;55682;51.114;5.882;2023-03-23T07:45:46;14.86;66.31
68701;DHT22;55682;51.114;5.882;2023-03-23T07:48:13;14.95;66.52
68701;DHT22;55682;51.114;5.882;2023-03-23T07:50:39;14.94;66.58
68701;DHT22;55682;51.114;5.882;2023-03-23T07:53:09;14.92;66.10
68701;DHT22;55682;51.114;5.882;2023-03-23T07:55:36;15.13;65.55
68701;DHT22;55682;51.114;5.882;2023-03-23T07:58:23;15.04;65.81
68701;DHT22;55682;51.114;5.882;2023-03-23T08:00:53;15.07;65.62
68701;DHT22;55682;51.114;5.882;2023-03-23T08:03:23;15.15;65.42
68701;DHT22;55682;51.114;5.882;2023-03-23T08:06:27;15.13;64.78
68701;DHT22;55682;51.114;5.882;2023-03-23T08:09:12;15.27;64.51
68701;DHT22;55682;51.114;5.882;2023-03-23T08:11:56;15.33;64.52
68701;DHT22;55682;51.114;5.882;2023-03-23T08:14:45;15.39;63.59
68701;DHT22;55682;51.114;5.882;2023-03-23T08:17:35;15.44;63.99
68701;DHT22;55682;51.114;5.882;2023-03-23T08:20:20;15.80;62.83
68701;DHT22;55682;51.114;5.882;2023-03-23T08:23:14;15.84;62.62
68701;DHT22;55682;51.114;5.882;2023-03-23T08:25:43;15.91;62.54
68701;DHT22;55682;51.114;5.882;2023-03-23T08:28:29;15.95;62.09
68701;DHT22;55682;51.114;5.882;2023-03-23T08:31:33;15.75;62.76
68701;DHT22;55682;51.114;5.882;2023-03-23T08:34:22;15.57;63.40
68701;DHT22;55682;51.114;5.882;2023-03-23T08:37:07;15.52;63.47
68701;DHT22;55682;51.114;5.882;2023-03-23T08:39:34;15.47;63.85
68701;DHT22;55682;51.114;5.882;2023-03-23T08:42:14;15.59;63.62
68701;DHT22;55682;51.114;5.882;2023-03-23T08:45:07;15.65;63.61
68701;DHT22;55682;51.114;5.882;2023-03-23T08:47:34;15.51;64.47
68701;DHT22;55682;51.114;5.882;2023-03-23T08:50:14;15.54;64.42
68701;DHT22;55682;51.114;5.882;2023-03-23T08:53:01;15.24;66.71
68701;DHT22;55682;51.114;5.882;2023-03-23T08:55:53;14.28;71.25
68701;DHT22;55682;51.114;5.882;2023-03-23T08:58:38;13.73;72.57
68701;DHT22;55682;51.114;5.882;2023-03-23T09:01:14;13.44;74.57
68701;DHT22;55682;51.114;5.882;2023-03-23T09:03:44;13.39;75.18
68701;DHT22;55682;51.114;5.882;2023-03-23T09:06:32;13.40;75.34
68701;DHT22;55682;51.114;5.882;2023-03-23T09:08:58;13.38;75.38
68701;DHT22;55682;51.114;5.882;2023-03-23T09:11:26;13.39;75.42
68701;DHT22;55682;51.114;5.882;2023-03-23T09:13:51;13.38;75.42
68701;DHT22;55682;51.114;5.882;2023-03-23T09:16:17;13.38;75.61
68701;DHT22;55682;51.114;5.882;2023-03-23T09:18:43;13.41;75.76
68701;DHT22;55682;51.114;5.882;2023-03-23T09:21:09;13.47;75.64
68701;DHT22;55682;51.114;5.882;2023-03-23T09:23:35;13.48;75.50
68701;DHT22;55682;51.114;5.882;2023-03-23T09:26:02;13.49;75.43
68701;DHT22;55682;51.114;5.882;2023-03-23T09:28:29;13.52;75.17
68701;DHT22;55682;51.114;5.882;2023-03-23T09:30:55;13.48;75.16
68701;DHT22;55682;51.114;5.882;2023-03-23T09:33:23;13.45;75.66
68701;DHT22;55682;51.114;5.882;2023-03-23T09:35:49;13.40;75.44
68701;DHT22;55682;51.114;5.882;2023-03-23T09:38:14;13.35;75.69
68701;DHT22;55682;51.114;5.882;2023-03-23T09:40:47;13.32;75.94
68701;DHT22;55682;51.114;5.882;2023-03-23T09:43:35;13.30;75.99
68701;DHT22;55682;51.114;5.882;2023-03-23T09:54:24;13.19;75.86
68701;DHT22;55682;51.114;5.882;2023-03-23T09:56:53;13.23;75.81
68701;DHT22;55682;51.114;5.882;2023-03-23T09:59:32;13.25;75.41
68701;DHT22;55682;51.114;5.882;2023-03-23T10:02:14;13.26;75.25
68701;DHT22;55682;51.114;5.882;2023-03-23T10:04:51;13.24;75.43
68701;DHT22;55682;51.114;5.882;2023-03-23T10:07:23;13.27;75.29
68701;DHT22;55682;51.114;5.882;2023-03-23T10:10:00;13.32;75.26
68701;DHT22;55682;51.114;5.882;2023-03-23T10:12:42;13.47;75.11
68701;DHT22;55682;51.114;5.882;2023-03-23T10:15:20;13.52;74.38
68701;DHT22;55682;51.114;5.882;2023-03-23T10:17:52;13.58;74.04
68701;DHT22;55682;51.114;5.882;2023-03-23T10:25:29;13.65;73.70
68701;DHT22;55682;51.114;5.882;2023-03-23T10:28:06;13.66;74.51
68701;DHT22;55682;51.114;5.882;2023-03-23T10:30:56;13.62;74.70
68701;DHT22;55682;51.114;5.882;2023-03-23T10:33:33;13.59;75.30
68701;DHT22;55682;51.114;5.882;2023-03-23T10:38:53;13.66;76.24
68701;DHT22;55682;51.114;5.882;2023-03-23T10:41:22;13.80;75.25
68701;DHT22;55682;51.114;5.882;2023-03-23T10:43:48;13.83;75.41
68701;DHT22;55682;51.114;5.882;2023-03-23T10:46:49;13.98;75.86
68701;DHT22;55682;51.114;5.882;2023-03-23T10:49:47;14.08;75.17
68701;DHT22;55682;51.114;5.882;2023-03-23T10:55:08;14.03;75.41
68701;DHT22;55682;51.114;5.882;2023-03-23T10:57:37;13.97;75.21
68701;DHT22;55682;51.114;5.882;2023-03-23T11:02:46;13.97;75.74
68701;DHT22;55682;51.114;5.882;2023-03-23T11:05:20;13.94;76.71
68701;DHT22;55682;51.114;5.882;2023-03-23T11:07:56;14.11;76.47
68701;DHT22;55682;51.114;5.882;2023-03-23T11:10:41;14.32;76.22
68701;DHT22;55682;51.114;5.882;2023-03-23T11:13:14;14.60;75.53
68701;DHT22;55682;51.114;5.882;2023-03-23T11:15:42;14.89;74.76
68701;DHT22;55682;51.114;5.882;2023-03-23T11:18:20;15.09;74.25
68701;DHT22;55682;51.114;5.882;2023-03-23T11:20:55;15.09;74.00
68701;DHT22;55682;51.114;5.882;2023-03-23T11:23:38;15.07;74.54
68701;DHT22;55682;51.114;5.882;2023-03-23T11:31:43;15.03;75.06
68701;DHT22;55682;51.114;5.882;2023-03-23T11:36:58;15.28;73.49
68701;DHT22;55682;51.114;5.882;2023-03-23T11:42:11;14.85;75.04
68701;DHT22;55682;51.114;5.882;2023-03-23T11:44:42;14.83;75.18
68701;DHT22;55682;51.114;5.882;2023-03-23T11:47:36;14.63;76.14
68701;DHT22;55682;51.114;5.882;2023-03-23T11:58:21;14.60;76.41
68701;DHT22;55682;51.114;5.882;2023-03-23T12:01:02;14.51;76.54
68701;DHT22;55682;51.114;5.882;2023-03-23T12:06:41;14.33;77.47
68701;DHT22;55682;51.114;5.882;2023-03-23T12:09:29;14.34;77.79
68701;DHT22;55682;51.114;5.882;2023-03-23T12:15:02;14.70;76.52
68701;DHT22;55682;51.114;5.882;2023-03-23T12:17:54;14.83;77.13
68701;DHT22;55682;51.114;5.882;2023-03-23T12:39:05;15.89;73.59
68701;DHT22;55682;51.114;5.882;2023-03-23T12:44:13;16.05;73.64
68701;DHT22;55682;51.114;5.882;2023-03-23T12:47:05;16.30;72.51
68701;DHT22;55682;51.114;5.882;2023-03-23T12:49:48;16.34;72.34
68701;DHT22;55682;51.114;5.882;2023-03-23T12:52:24;16.42;71.45
68701;DHT22;55682;51.114;5.882;2023-03-23T12:55:02;16.46;72.31
68701;DHT22;55682;51.114;5.882;2023-03-23T13:00:31;16.74;71.10
68701;DHT22;55682;51.114;5.882;2023-03-23T13:06:04;16.71;70.62
68701;DHT22;55682;51.114;5.882;2023-03-23T13:08:37;16.69;70.61
68701;DHT22;55682;51.114;5.882;2023-03-23T13:11:13;16.71;71.22
68701;DHT22;55682;51.114;5.882;2023-03-23T13:13:52;16.78;70.38
68701;DHT22;55682;51.114;5.882;2023-03-23T13:19:31;16.52;71.45
68701;DHT22;55682;51.114;5.882;2023-03-23T13:22:28;16.78;71.81
68701;DHT22;55682;51.114;5.882;2023-03-23T13:25:01;17.05;70.02
68701;DHT22;55682;51.114;5.882;2023-03-23T13:27:29;17.35;69.03
68701;DHT22;55682;51.114;5.882;2023-03-23T13:29:57;17.22;66.87
68701;DHT22;55682;51.114;5.882;2023-03-23T13:32:43;17.05;65.92
68701;DHT22;55682;51.114;5.882;2023-03-23T13:35:17;17.03;67.39
68701;DHT22;55682;51.114;5.882;2023-03-23T13:37:50;16.88;66.51
68701;DHT22;55682;51.114;5.882;2023-03-23T13:42:51;16.86;66.15
68701;DHT22;55682;51.114;5.882;2023-03-23T13:45:20;16.87;66.70
68701;DHT22;55682;51.114;5.882;2023-03-23T13:47:46;16.76;66.79
68701;DHT22;55682;51.114;5.882;2023-03-23T13:50:26;16.75;67.36
68701;DHT22;55682;51.114;5.882;2023-03-23T13:52:58;16.67;67.78
68701;DHT22;55682;51.114;5.882;2023-03-23T14:03:25;16.30;69.83
68701;DHT22;55682;51.114;5.882;2023-03-23T14:10:57;15.85;72.70
68701;DHT22;55682;51.114;5.882;2023-03-23T14:14:28;15.81;73.15
68701;DHT22;55682;51.114;5.882;2023-03-23T14:16:42;15.77;73.72
68701;DHT22;55682;51.114;5.882;2023-03-23T14:19:22;15.75;73.83
68701;DHT22;55682;51.114;5.882;2023-03-23T14:21:53;15.62;74.44
68701;DHT22;55682;51.114;5.882;2023-03-23T14:26:49;15.52;75.40
68701;DHT22;55682;51.114;5.882;2023-03-23T14:29:19;15.59;75.90
68701;DHT22;55682;51.114;5.882;2023-03-23T14:31:55;15.83;76.22
68701;DHT22;55682;51.114;5.882;2023-03-23T14:34:25;16.16;75.21
68701;DHT22;55682;51.114;5.882;2023-03-23T14:36:53;16.28;74.33
68701;DHT22;55682;51.114;5.882;2023-03-23T14:39:26;16.31;74.10
68701;DHT22;55682;51.114;5.882;2023-03-23T14:41:55;16.27;74.56
68701;DHT22;55682;51.114;5.882;2023-03-23T14:44:26;16.12;73.58
68701;DHT22;55682;51.114;5.882;2023-03-23T14:46:55;16.18;73.23
68701;DHT22;55682;51.114;5.882;2023-03-23T14:49:30;16.39;71.58
68701;DHT22;55682;51.114;5.882;2023-03-23T14:51:57;16.33;71.55
68701;DHT22;55682;51.114;5.882;2023-03-23T14:54:28;16.31;71.90
68701;DHT22;55682;51.114;5.882;2023-03-23T14:56:55;16.36;71.48
68701;DHT22;55682;51.114;5.882;2023-03-23T14:59:21;16.42;70.77
68701;DHT22;55682;51.114;5.882;2023-03-23T15:01:50;16.37;70.54
68701;DHT22;55682;51.114;5.882;2023-03-23T15:04:20;16.70;68.95
68701;DHT22;55682;51.114;5.882;2023-03-23T15:06:54;16.46;69.88
68701;DHT22;55682;51.114;5.882;2023-03-23T15:09:23;16.47;70.12
68701;DHT22;55682;51.114;5.882;2023-03-23T15:12:04;16.44;69.87
68701;DHT22;55682;51.114;5.882;2023-03-23T15:14:45;16.54;69.29
68701;DHT22;55682;51.114;5.882;2023-03-23T15:17:25;16.24;68.78
68701;DHT22;55682;51.114;5.882;2023-03-23T15:19:53;16.46;69.35
68701;DHT22;55682;51.114;5.882;2023-03-23T15:22:30;16.57;67.98
68701;DHT22;55682;51.114;5.882;2023-03-23T15:27:49;16.82;67.46
68701;DHT22;55682;51.114;5.882;2023-03-23T15:32:59;16.81;67.50
68701;DHT22;55682;51.114;5.882;2023-03-23T15:35:25;16.81;66.98
68701;DHT22;55682;51.114;5.882;2023-03-23T15:38:01;16.81;67.63
68701;DHT22;55682;51.114;5.882;2023-03-23T15:40:33;16.87;67.54
68701;DHT22;55682;51.114;5.882;2023-03-23T15:43:17;17.06;67.01
68701;DHT22;55682;51.114;5.882;2023-03-23T15:48:22;17.30;65.29
68701;DHT22;55682;51.114;5.882;2023-03-23T15:50:50;17.17;65.17
68701;DHT22;55682;51.114;5.882;2023-03-23T15:53:27;17.11;65.59
68701;DHT22;55682;51.114;5.882;2023-03-23T15:55:53;17.11;65.24
68701;DHT22;55682;51.114;5.882;2023-03-23T15:58:19;17.14;64.76
68701;DHT22;55682;51.114;5.882;2023-03-23T16:00:46;17.13;64.40
68701;DHT22;55682;51.114;5.882;2023-03-23T16:03:19;17.01;64.66
68701;DHT22;55682;51.114;5.882;2023-03-23T16:05:46;16.89;64.42
68701;DHT22;55682;51.114;5.882;2023-03-23T16:08:12;16.79;64.24
68701;DHT22;55682;51.114;5.882;2023-03-23T16:10:39;16.87;64.47
68701;DHT22;55682;51.114;5.882;2023-03-23T16:13:04;16.87;64.40
68701;DHT22;55682;51.114;5.882;2023-03-23T16:15:31;16.96;62.97
68701;DHT22;55682;51.114;5.882;2023-03-23T16:17:57;16.91;63.16
68701;DHT22;55682;51.114;5.882;2023-03-23T16:20:23;16.71;62.24
68701;DHT22;55682;51.114;5.882;2023-03-23T16:22:50;16.78;62.52
68701;DHT22;55682;51.114;5.882;2023-03-23T16:25:17;16.67;62.57
68701;DHT22;55682;51.114;5.882;2023-03-23T16:27:44;16.69;62.47
68701;DHT22;55682;51.114;5.882;2023-03-23T16:30:18;16.71;62.12
68701;DHT22;55682;51.114;5.882;2023-03-23T16:32:45;16.75;61.45
68701;DHT22;55682;51.114;5.882;2023-03-23T16:35:12;16.73;61.83
68701;DHT22;55682;51.114;5.882;2023-03-23T16:37:43;16.69;61.56
68701;DHT22;55682;51.114;5.882;2023-03-23T16:40:11;16.67;61.78
68701;DHT22;55682;51.114;5.882;2023-03-23T16:42:38;16.67;61.76
68701;DHT22;55682;51.114;5.882;2023-03-23T16:45:04;16.63;61.79
68701;DHT22;55682;51.114;5.882;2023-03-23T16:47:31;16.59;61.98
68701;DHT22;55682;51.114;5.882;2023-03-23T16:49:56;16.46;62.03
68701;DHT22;55682;51.114;5.882;2023-03-23T16:52:22;16.54;62.17
68701;DHT22;55682;51.114;5.882;2023-03-23T16:54:48;16.59;62.03
68701;DHT22;55682;51.114;5.882;2023-03-23T16:57:14;16.64;61.90
68701;DHT22;55682;51.114;5.882;2023-03-23T16:59:39;16.56;61.72
68701;DHT22;55682;51.114;5.882;2023-03-23T17:02:05;16.47;62.33
68701;DHT22;55682;51.114;5.882;2023-03-23T17:04:32;16.49;62.28
68701;DHT22;55682;51.114;5.882;2023-03-23T17:06:58;16.54;61.73
68701;DHT22;55682;51.114;5.882;2023-03-23T17:09:25;16.52;61.47
68701;DHT22;55682;51.114;5.882;2023-03-23T17:11:52;16.59;61.52
68701;DHT22;55682;51.114;5.882;2023-03-23T17:14:19;16.56;61.73
68701;DHT22;55682;51.114;5.882;2023-03-23T17:16:45;16.51;61.71
68701;DHT22;55682;51.114;5.882;2023-03-23T17:19:11;16.46;61.86
68701;DHT22;55682;51.114;5.882;2023-03-23T17:21:39;16.54;61.25
68701;DHT22;55682;51.114;5.882;2023-03-23T17:24:06;16.30;62.21
68701;DHT22;55682;51.114;5.882;2023-03-23T17:26:32;16.30;62.02
68701;DHT22;55682;51.114;5.882;2023-03-23T17:28:57;16.08;62.89
68701;DHT22;55682;51.114;5.882;2023-03-23T17:31:23;16.10;62.94
68701;DHT22;55682;51.114;5.882;2023-03-23T17:33:49;16.22;62.53
68701;DHT22;55682;51.114;5.882;2023-03-23T17:36:17;16.31;62.18
68701;DHT22;55682;51.114;5.882;2023-03-23T17:38:44;16.20;62.48
68701;DHT22;55682;51.114;5.882;2023-03-23T17:41:10;16.21;62.52
68701;DHT22;55682;51.114;5.882;2023-03-23T17:43:37;15.98;63.38
68701;DHT22;55682;51.114;5.882;2023-03-23T17:46:05;16.05;63.26
68701;DHT22;55682;51.114;5.882;2023-03-23T17:48:32;15.95;63.56
68701;DHT22;55682;51.114;5.882;2023-03-23T17:50:58;16.14;62.95
68701;DHT22;55682;51.114;5.882;2023-03-23T17:53:25;16.10;63.01
68701;DHT22;55682;51.114;5.882;2023-03-23T17:55:51;16.19;62.76
68701;DHT22;55682;51.114;5.882;2023-03-23T17:58:17;16.18;62.40
68701;DHT22;55682;51.114;5.882;2023-03-23T18:00:43;16.10;62.95
68701;DHT22;55682;51.114;5.882;2023-03-23T18:03:09;16.05;62.58
68701;DHT22;55682;51.114;5.882;2023-03-23T18:05:35;16.14;62.76
68701;DHT22;55682;51.114;5.882;2023-03-23T18:08:05;16.15;62.49
68701;DHT22;55682;51.114;5.882;2023-03-23T18:10:30;16.07;61.94
68701;DHT22;55682;51.114;5.882;2023-03-23T18:12:56;16.02;62.91